sensor_id;sensor_type;location;lat;lon;timestamp;P1;durP1;ratioP1;P2;durP2;ratioP2
83263;SDS011;73156;50.988;11.034;2024-01-11T00:02:03;46.47;;;29.75;;
83263;SDS011;73156;50.988;11.034;2024-01-11T00:04:28;49.05;;;30.42;;
83263;SDS011;73156;50.988;11.034;2024-01-11T00:06:54;52.20;;;30.33;;
83263;SDS011;73156;50.988;11.034;2024-01-11T00:09:19;45.67;;;28.47;;
83263;SDS011;73156;50.988;11.034;2024-01-11T00:11:44;47.07;;;29.30;;
83263;SDS011;73156;50.988;11.034;2024-01-11T00:14:09;48.53;;;29.93;;
83263;SDS011;73156;50.988;11.034;2024-01-11T00:16:35;45.13;;;29.80;;
83263;SDS011;73156;50.988;11.034;2024-01-11T00:19:00;45.53;;;29.67;;
83263;SDS011;73156;50.988;11.034;2024-01-11T00:21:25;50.03;;;30.83;;
83263;SDS011;73156;50.988;11.034;2024-01-11T00:23:50;46.90;;;28.97;;
83263;SDS011;73156;50.988;11.034;2024-01-11T00:26:16;48.07;;;29.13;;
83263;SDS011;73156;50.988;11.034;2024-01-11T00:28:41;44.33;;;27.43;;
83263;SDS011;73156;50.988;11.034;2024-01-11T00:31:10;45.97;;;28.25;;
83263;SDS011;73156;50.988;11.034;2024-01-11T00:33:35;44.22;;;29.13;;
83263;SDS011;73156;50.988;11.034;2024-01-11T00:36:01;46.17;;;28.70;;
83263;SDS011;73156;50.988;11.034;2024-01-11T00:38:26;46.50;;;28.58;;
83263;SDS011;73156;50.988;11.034;2024-01-11T00:40:51;43.85;;;27.27;;
83263;SDS011;73156;50.988;11.034;2024-01-11T00:43:17;41.15;;;27.52;;
83263;SDS011;73156;50.988;11.034;2024-01-11T00:45:43;44.28;;;27.48;;
83263;SDS011;73156;50.988;11.034;2024-01-11T00:48:10;42.47;;;27.98;;
83263;SDS011;73156;50.988;11.034;2024-01-11T00:50:36;42.75;;;27.80;;
83263;SDS011;73156;50.988;11.034;2024-01-11T00:53:01;45.30;;;26.70;;
83263;SDS011;73156;50.988;11.034;2024-01-11T00:55:28;44.83;;;26.38;;
83263;SDS011;73156;50.988;11.034;2024-01-11T00:57:53;43.58;;;26.73;;
83263;SDS011;73156;50.988;11.034;2024-01-11T01:00:18;43.65;;;26.88;;
83263;SDS011;73156;50.988;11.034;2024-01-11T01:02:44;44.22;;;27.10;;
83263;SDS011;73156;50.988;11.034;2024-01-11T01:05:09;46.83;;;28.40;;
83263;SDS011;73156;50.988;11.034;2024-01-11T01:07:35;47.78;;;29.35;;
83263;SDS011;73156;50.988;11.034;2024-01-11T01:10:00;43.53;;;28.73;;
83263;SDS011;73156;50.988;11.034;2024-01-11T01:12:26;43.33;;;26.50;;
83263;SDS011;73156;50.988;11.034;2024-01-11T01:14:52;45.10;;;27.48;;
83263;SDS011;73156;50.988;11.034;2024-01-11T01:17:17;44.47;;;26.63;;
83263;SDS011;73156;50.988;11.034;2024-01-11T01:19:43;43.53;;;27.70;;
83263;SDS011;73156;50.988;11.034;2024-01-11T01:22:08;50.58;;;28.30;;
83263;SDS011;73156;50.988;11.034;2024-01-11T01:24:34;44.55;;;27.52;;
83263;SDS011;73156;50.988;11.034;2024-01-11T01:26:59;42.70;;;26.85;;
83263;SDS011;73156;50.988;11.034;2024-01-11T01:29:25;42.47;;;25.27;;
83263;SDS011;73156;50.988;11.034;2024-01-11T01:31:51;44.08;;;28.00;;
83263;SDS011;73156;50.988;11.034;2024-01-11T01:34:16;41.67;;;28.27;;
83263;SDS011;73156;50.988;11.034;2024-01-11T01:36:42;41.00;;;26.80;;
83263;SDS011;73156;50.988;11.034;2024-01-11T01:39:07;44.07;;;26.70;;
83263;SDS011;73156;50.988;11.034;2024-01-11T01:41:32;44.45;;;26.42;;
83263;SDS011;73156;50.988;11.034;2024-01-11T01:43:58;43.87;;;27.37;;
83263;SDS011;73156;50.988;11.034;2024-01-11T01:46:23;42.73;;;26.13;;
83263;SDS011;73156;50.988;11.034;2024-01-11T01:48:50;41.65;;;26.85;;
83263;SDS011;73156;50.988;11.034;2024-01-11T01:51:17;42.65;;;27.58;;
83263;SDS011;73156;50.988;11.034;2024-01-11T01:53:42;41.72;;;24.50;;
83263;SDS011;73156;50.988;11.034;2024-01-11T01:56:08;40.67;;;25.75;;
83263;SDS011;73156;50.988;11.034;2024-01-11T01:58:34;42.53;;;27.00;;
83263;SDS011;73156;50.988;11.034;2024-01-11T02:01:00;44.70;;;25.70;;
83263;SDS011;73156;50.988;11.034;2024-01-11T02:03:27;40.70;;;26.17;;
83263;SDS011;73156;50.988;11.034;2024-01-11T02:05:53;39.40;;;26.55;;
83263;SDS011;73156;50.988;11.034;2024-01-11T02:08:19;38.03;;;25.60;;
83263;SDS011;73156;50.988;11.034;2024-01-11T02:10:50;38.92;;;25.17;;
83263;SDS011;73156;50.988;11.034;2024-01-11T02:13:16;40.15;;;25.85;;
83263;SDS011;73156;50.988;11.034;2024-01-11T02:15:41;39.88;;;24.65;;
83263;SDS011;73156;50.988;11.034;2024-01-11T02:18:07;37.08;;;24.05;;
83263;SDS011;73156;50.988;11.034;2024-01-11T02:20:32;37.83;;;24.80;;
83263;SDS011;73156;50.988;11.034;2024-01-11T02:22:58;39.20;;;24.35;;
83263;SDS011;73156;50.988;11.034;2024-01-11T02:25:30;40.78;;;25.05;;
83263;SDS011;73156;50.988;11.034;2024-01-11T02:27:55;40.07;;;25.80;;
83263;SDS011;73156;50.988;11.034;2024-01-11T02:30:21;39.57;;;23.77;;
83263;SDS011;73156;50.988;11.034;2024-01-11T02:32:47;37.22;;;23.67;;
83263;SDS011;73156;50.988;11.034;2024-01-11T02:35:16;37.95;;;24.63;;
83263;SDS011;73156;50.988;11.034;2024-01-11T02:37:43;37.25;;;24.23;;
83263;SDS011;73156;50.988;11.034;2024-01-11T02:40:10;38.33;;;24.52;;
83263;SDS011;73156;50.988;11.034;2024-01-11T02:42:37;40.40;;;22.85;;
83263;SDS011;73156;50.988;11.034;2024-01-11T02:45:03;36.00;;;24.20;;
83263;SDS011;73156;50.988;11.034;2024-01-11T02:47:29;38.17;;;23.58;;
83263;SDS011;73156;50.988;11.034;2024-01-11T02:49:54;40.70;;;24.25;;
83263;SDS011;73156;50.988;11.034;2024-01-11T02:52:20;42.00;;;24.52;;
83263;SDS011;73156;50.988;11.034;2024-01-11T02:54:45;39.37;;;24.43;;
83263;SDS011;73156;50.988;11.034;2024-01-11T02:57:10;39.72;;;24.60;;
83263;SDS011;73156;50.988;11.034;2024-01-11T02:59:36;36.45;;;23.77;;
83263;SDS011;73156;50.988;11.034;2024-01-11T03:02:01;36.72;;;23.02;;
83263;SDS011;73156;50.988;11.034;2024-01-11T03:04:27;35.70;;;23.60;;
83263;SDS011;73156;50.988;11.034;2024-01-11T03:06:52;39.83;;;25.03;;
83263;SDS011;73156;50.988;11.034;2024-01-11T03:09:17;37.87;;;23.93;;
83263;SDS011;73156;50.988;11.034;2024-01-11T03:11:42;39.83;;;23.97;;
83263;SDS011;73156;50.988;11.034;2024-01-11T03:14:08;38.03;;;23.67;;
83263;SDS011;73156;50.988;11.034;2024-01-11T03:16:33;37.50;;;24.30;;
83263;SDS011;73156;50.988;11.034;2024-01-11T03:18:59;38.80;;;24.58;;
83263;SDS011;73156;50.988;11.034;2024-01-11T03:21:24;34.67;;;22.50;;
83263;SDS011;73156;50.988;11.034;2024-01-11T03:23:49;38.45;;;23.33;;
83263;SDS011;73156;50.988;11.034;2024-01-11T03:26:18;39.10;;;23.23;;
83263;SDS011;73156;50.988;11.034;2024-01-11T03:28:43;38.10;;;24.98;;
83263;SDS011;73156;50.988;11.034;2024-01-11T03:31:12;34.25;;;22.85;;
83263;SDS011;73156;50.988;11.034;2024-01-11T03:33:37;39.80;;;24.10;;
83263;SDS011;73156;50.988;11.034;2024-01-11T03:36:06;34.43;;;22.67;;
83263;SDS011;73156;50.988;11.034;2024-01-11T03:38:32;34.55;;;22.30;;
83263;SDS011;73156;50.988;11.034;2024-01-11T03:40:57;32.33;;;21.20;;
83263;SDS011;73156;50.988;11.034;2024-01-11T03:43:23;35.55;;;22.52;;
83263;SDS011;73156;50.988;11.034;2024-01-11T03:45:48;33.53;;;21.63;;
83263;SDS011;73156;50.988;11.034;2024-01-11T03:48:13;34.07;;;22.07;;
83263;SDS011;73156;50.988;11.034;2024-01-11T03:50:38;33.03;;;22.87;;
83263;SDS011;73156;50.988;11.034;2024-01-11T03:53:04;32.90;;;22.67;;
83263;SDS011;73156;50.988;11.034;2024-01-11T03:55:29;34.83;;;22.63;;
83263;SDS011;73156;50.988;11.034;2024-01-11T03:57:54;33.25;;;22.25;;
83263;SDS011;73156;50.988;11.034;2024-01-11T04:00:20;35.08;;;22.15;;
83263;SDS011;73156;50.988;11.034;2024-01-11T04:02:45;34.28;;;22.13;;
83263;SDS011;73156;50.988;11.034;2024-01-11T04:05:10;34.33;;;22.43;;
83263;SDS011;73156;50.988;11.034;2024-01-11T04:07:35;34.57;;;20.77;;
83263;SDS011;73156;50.988;11.034;2024-01-11T04:10:01;33.58;;;22.00;;
83263;SDS011;73156;50.988;11.034;2024-01-11T04:12:26;33.60;;;22.65;;
83263;SDS011;73156;50.988;11.034;2024-01-11T04:14:51;34.97;;;21.77;;
83263;SDS011;73156;50.988;11.034;2024-01-11T04:17:17;34.83;;;22.27;;
83263;SDS011;73156;50.988;11.034;2024-01-11T04:19:42;32.10;;;21.37;;
83263;SDS011;73156;50.988;11.034;2024-01-11T04:22:07;36.05;;;22.25;;
83263;SDS011;73156;50.988;11.034;2024-01-11T04:24:32;34.43;;;22.23;;
83263;SDS011;73156;50.988;11.034;2024-01-11T04:26:58;34.23;;;20.73;;
83263;SDS011;73156;50.988;11.034;2024-01-11T04:29:23;33.30;;;21.33;;
83263;SDS011;73156;50.988;11.034;2024-01-11T04:31:49;36.53;;;21.63;;
83263;SDS011;73156;50.988;11.034;2024-01-11T04:34:14;34.80;;;22.13;;
83263;SDS011;73156;50.988;11.034;2024-01-11T04:36:39;33.23;;;20.30;;
83263;SDS011;73156;50.988;11.034;2024-01-11T04:39:04;34.78;;;21.15;;
83263;SDS011;73156;50.988;11.034;2024-01-11T04:41:31;40.10;;;22.83;;
83263;SDS011;73156;50.988;11.034;2024-01-11T04:43:56;38.25;;;22.40;;
83263;SDS011;73156;50.988;11.034;2024-01-11T04:46:22;38.17;;;22.90;;
83263;SDS011;73156;50.988;11.034;2024-01-11T04:48:48;40.10;;;22.63;;
83263;SDS011;73156;50.988;11.034;2024-01-11T04:51:16;39.65;;;23.65;;
83263;SDS011;73156;50.988;11.034;2024-01-11T04:53:42;38.10;;;22.42;;
83263;SDS011;73156;50.988;11.034;2024-01-11T04:56:09;37.13;;;21.77;;
83263;SDS011;73156;50.988;11.034;2024-01-11T04:58:36;36.25;;;22.25;;
83263;SDS011;73156;50.988;11.034;2024-01-11T05:03:30;40.88;;;22.30;;
83263;SDS011;73156;50.988;11.034;2024-01-11T05:05:56;34.83;;;20.20;;
83263;SDS011;73156;50.988;11.034;2024-01-11T05:08:22;34.15;;;20.25;;
83263;SDS011;73156;50.988;11.034;2024-01-11T05:10:48;39.30;;;22.45;;
83263;SDS011;73156;50.988;11.034;2024-01-11T05:13:14;36.25;;;20.17;;
83263;SDS011;73156;50.988;11.034;2024-01-11T05:15:39;36.03;;;21.43;;
83263;SDS011;73156;50.988;11.034;2024-01-11T05:18:04;37.93;;;19.97;;
83263;SDS011;73156;50.988;11.034;2024-01-11T05:20:29;35.77;;;21.53;;
83263;SDS011;73156;50.988;11.034;2024-01-11T05:22:55;34.17;;;20.63;;
83263;SDS011;73156;50.988;11.034;2024-01-11T05:25:20;36.45;;;21.42;;
83263;SDS011;73156;50.988;11.034;2024-01-11T05:27:45;34.47;;;20.67;;
83263;SDS011;73156;50.988;11.034;2024-01-11T05:30:10;35.33;;;21.47;;
83263;SDS011;73156;50.988;11.034;2024-01-11T05:32:36;33.05;;;21.08;;
83263;SDS011;73156;50.988;11.034;2024-01-11T05:35:01;37.53;;;21.10;;
83263;SDS011;73156;50.988;11.034;2024-01-11T05:37:26;30.55;;;20.45;;
83263;SDS011;73156;50.988;11.034;2024-01-11T05:39:52;34.30;;;21.07;;
83263;SDS011;73156;50.988;11.034;2024-01-11T05:42:19;36.13;;;22.45;;
83263;SDS011;73156;50.988;11.034;2024-01-11T05:44:44;32.63;;;21.50;;
83263;SDS011;73156;50.988;11.034;2024-01-11T05:47:09;33.00;;;20.13;;
83263;SDS011;73156;50.988;11.034;2024-01-11T05:49:35;33.72;;;20.58;;
83263;SDS011;73156;50.988;11.034;2024-01-11T05:52:00;34.90;;;21.73;;
83263;SDS011;73156;50.988;11.034;2024-01-11T05:54:25;34.25;;;20.17;;
83263;SDS011;73156;50.988;11.034;2024-01-11T05:56:53;34.75;;;21.17;;
83263;SDS011;73156;50.988;11.034;2024-01-11T05:59:21;36.85;;;21.15;;
83263;SDS011;73156;50.988;11.034;2024-01-11T06:01:46;29.67;;;19.63;;
83263;SDS011;73156;50.988;11.034;2024-01-11T06:04:11;33.93;;;21.73;;
83263;SDS011;73156;50.988;11.034;2024-01-11T06:06:37;33.43;;;20.40;;
83263;SDS011;73156;50.988;11.034;2024-01-11T06:09:02;32.40;;;21.13;;
83263;SDS011;73156;50.988;11.034;2024-01-11T06:11:29;32.30;;;19.20;;
83263;SDS011;73156;50.988;11.034;2024-01-11T06:13:55;34.25;;;21.83;;
83263;SDS011;73156;50.988;11.034;2024-01-11T06:16:20;32.22;;;19.60;;
83263;SDS011;73156;50.988;11.034;2024-01-11T06:18:45;35.93;;;21.97;;
83263;SDS011;73156;50.988;11.034;2024-01-11T06:21:11;39.27;;;24.20;;
83263;SDS011;73156;50.988;11.034;2024-01-11T06:23:36;36.55;;;22.83;;
83263;SDS011;73156;50.988;11.034;2024-01-11T06:26:01;36.75;;;22.08;;
83263;SDS011;73156;50.988;11.034;2024-01-11T06:28:27;41.90;;;22.73;;
83263;SDS011;73156;50.988;11.034;2024-01-11T06:30:52;67.13;;;24.13;;
83263;SDS011;73156;50.988;11.034;2024-01-11T06:33:18;66.75;;;23.85;;
83263;SDS011;73156;50.988;11.034;2024-01-11T06:35:45;59.70;;;25.95;;
83263;SDS011;73156;50.988;11.034;2024-01-11T06:38:10;62.00;;;22.73;;
83263;SDS011;73156;50.988;11.034;2024-01-11T06:40:35;57.93;;;25.50;;
83263;SDS011;73156;50.988;11.034;2024-01-11T06:43:01;55.27;;;24.97;;
83263;SDS011;73156;50.988;11.034;2024-01-11T06:45:26;57.60;;;22.02;;
83263;SDS011;73156;50.988;11.034;2024-01-11T06:47:51;59.85;;;22.77;;
83263;SDS011;73156;50.988;11.034;2024-01-11T06:50:17;53.90;;;22.97;;
83263;SDS011;73156;50.988;11.034;2024-01-11T06:52:42;60.50;;;24.15;;
83263;SDS011;73156;50.988;11.034;2024-01-11T06:55:08;57.40;;;24.75;;
83263;SDS011;73156;50.988;11.034;2024-01-11T06:57:33;58.17;;;25.85;;
83263;SDS011;73156;50.988;11.034;2024-01-11T06:59:58;46.50;;;23.93;;
83263;SDS011;73156;50.988;11.034;2024-01-11T07:02:24;48.03;;;22.33;;
83263;SDS011;73156;50.988;11.034;2024-01-11T07:04:49;47.30;;;24.30;;
83263;SDS011;73156;50.988;11.034;2024-01-11T07:07:14;48.63;;;23.10;;
83263;SDS011;73156;50.988;11.034;2024-01-11T07:09:40;47.20;;;23.13;;
83263;SDS011;73156;50.988;11.034;2024-01-11T07:12:05;47.43;;;21.13;;
83263;SDS011;73156;50.988;11.034;2024-01-11T07:14:31;43.60;;;22.20;;
83263;SDS011;73156;50.988;11.034;2024-01-11T07:16:56;57.80;;;23.60;;
83263;SDS011;73156;50.988;11.034;2024-01-11T07:19:22;43.88;;;22.98;;
83263;SDS011;73156;50.988;11.034;2024-01-11T07:21:47;43.63;;;22.03;;
83263;SDS011;73156;50.988;11.034;2024-01-11T07:24:12;45.30;;;21.60;;
83263;SDS011;73156;50.988;11.034;2024-01-11T07:26:38;47.90;;;22.90;;
83263;SDS011;73156;50.988;11.034;2024-01-11T07:29:03;42.35;;;23.50;;
83263;SDS011;73156;50.988;11.034;2024-01-11T07:31:28;38.80;;;22.10;;
83263;SDS011;73156;50.988;11.034;2024-01-11T07:33:54;41.72;;;22.95;;
83263;SDS011;73156;50.988;11.034;2024-01-11T07:36:19;39.30;;;22.35;;
83263;SDS011;73156;50.988;11.034;2024-01-11T07:38:45;42.75;;;20.83;;
83263;SDS011;73156;50.988;11.034;2024-01-11T07:41:10;43.17;;;23.17;;
83263;SDS011;73156;50.988;11.034;2024-01-11T07:43:36;41.05;;;22.52;;
83263;SDS011;73156;50.988;11.034;2024-01-11T07:46:01;47.57;;;23.20;;
83263;SDS011;73156;50.988;11.034;2024-01-11T07:48:28;41.35;;;21.67;;
83263;SDS011;73156;50.988;11.034;2024-01-11T07:50:54;40.67;;;21.02;;
83263;SDS011;73156;50.988;11.034;2024-01-11T07:53:19;38.90;;;21.47;;
83263;SDS011;73156;50.988;11.034;2024-01-11T07:55:44;41.67;;;21.17;;
83263;SDS011;73156;50.988;11.034;2024-01-11T07:58:12;39.05;;;21.95;;
83263;SDS011;73156;50.988;11.034;2024-01-11T08:00:38;37.83;;;21.90;;
83263;SDS011;73156;50.988;11.034;2024-01-11T08:03:04;42.67;;;23.23;;
83263;SDS011;73156;50.988;11.034;2024-01-11T08:05:29;39.97;;;22.38;;
83263;SDS011;73156;50.988;11.034;2024-01-11T08:07:54;40.58;;;22.35;;
83263;SDS011;73156;50.988;11.034;2024-01-11T08:10:20;40.03;;;22.87;;
83263;SDS011;73156;50.988;11.034;2024-01-11T08:12:45;34.67;;;22.27;;
83263;SDS011;73156;50.988;11.034;2024-01-11T08:15:10;38.40;;;23.02;;
83263;SDS011;73156;50.988;11.034;2024-01-11T08:17:37;40.05;;;22.60;;
83263;SDS011;73156;50.988;11.034;2024-01-11T08:20:03;36.55;;;22.30;;
83263;SDS011;73156;50.988;11.034;2024-01-11T08:22:29;40.00;;;23.15;;
83263;SDS011;73156;50.988;11.034;2024-01-11T08:24:58;40.47;;;22.05;;
83263;SDS011;73156;50.988;11.034;2024-01-11T08:27:23;38.60;;;23.13;;
83263;SDS011;73156;50.988;11.034;2024-01-11T08:29:49;38.87;;;22.43;;
83263;SDS011;73156;50.988;11.034;2024-01-11T08:32:14;36.75;;;22.92;;
83263;SDS011;73156;50.988;11.034;2024-01-11T08:34:39;34.87;;;20.93;;
83263;SDS011;73156;50.988;11.034;2024-01-11T08:37:05;41.88;;;22.88;;
83263;SDS011;73156;50.988;11.034;2024-01-11T08:39:30;39.95;;;22.15;;
83263;SDS011;73156;50.988;11.034;2024-01-11T08:41:56;37.00;;;22.08;;
83263;SDS011;73156;50.988;11.034;2024-01-11T08:44:21;35.30;;;21.38;;
83263;SDS011;73156;50.988;11.034;2024-01-11T08:46:47;35.97;;;22.03;;
83263;SDS011;73156;50.988;11.034;2024-01-11T08:49:12;39.40;;;21.97;;
83263;SDS011;73156;50.988;11.034;2024-01-11T08:51:37;39.63;;;21.77;;
83263;SDS011;73156;50.988;11.034;2024-01-11T08:54:03;33.83;;;20.83;;
83263;SDS011;73156;50.988;11.034;2024-01-11T08:56:29;35.63;;;21.30;;
83263;SDS011;73156;50.988;11.034;2024-01-11T08:58:54;35.95;;;21.85;;
83263;SDS011;73156;50.988;11.034;2024-01-11T09:01:19;35.30;;;21.07;;
83263;SDS011;73156;50.988;11.034;2024-01-11T09:03:45;36.47;;;21.35;;
83263;SDS011;73156;50.988;11.034;2024-01-11T09:06:13;34.40;;;20.25;;
83263;SDS011;73156;50.988;11.034;2024-01-11T09:08:39;38.60;;;22.00;;
83263;SDS011;73156;50.988;11.034;2024-01-11T09:11:06;35.22;;;21.02;;
83263;SDS011;73156;50.988;11.034;2024-01-11T09:13:31;33.65;;;21.92;;
83263;SDS011;73156;50.988;11.034;2024-01-11T09:15:56;32.60;;;21.05;;
83263;SDS011;73156;50.988;11.034;2024-01-11T09:18:23;35.40;;;21.77;;
83263;SDS011;73156;50.988;11.034;2024-01-11T09:20:48;39.17;;;21.67;;
83263;SDS011;73156;50.988;11.034;2024-01-11T09:23:14;35.90;;;22.65;;
83263;SDS011;73156;50.988;11.034;2024-01-11T09:25:40;34.40;;;21.02;;
83263;SDS011;73156;50.988;11.034;2024-01-11T09:28:05;34.22;;;21.70;;
83263;SDS011;73156;50.988;11.034;2024-01-11T09:30:31;35.88;;;19.15;;
83263;SDS011;73156;50.988;11.034;2024-01-11T09:32:56;35.15;;;21.05;;
83263;SDS011;73156;50.988;11.034;2024-01-11T09:35:22;33.90;;;19.93;;
83263;SDS011;73156;50.988;11.034;2024-01-11T09:37:48;32.85;;;20.50;;
83263;SDS011;73156;50.988;11.034;2024-01-11T09:40:14;32.15;;;18.95;;
83263;SDS011;73156;50.988;11.034;2024-01-11T09:42:39;33.35;;;19.42;;
83263;SDS011;73156;50.988;11.034;2024-01-11T09:45:07;31.25;;;19.58;;
83263;SDS011;73156;50.988;11.034;2024-01-11T09:47:35;32.20;;;20.88;;
83263;SDS011;73156;50.988;11.034;2024-01-11T09:50:02;32.33;;;20.42;;
83263;SDS011;73156;50.988;11.034;2024-01-11T09:52:28;35.30;;;21.05;;
83263;SDS011;73156;50.988;11.034;2024-01-11T09:54:56;34.28;;;18.70;;
83263;SDS011;73156;50.988;11.034;2024-01-11T09:57:24;34.92;;;20.75;;
83263;SDS011;73156;50.988;11.034;2024-01-11T09:59:51;32.55;;;19.75;;
83263;SDS011;73156;50.988;11.034;2024-01-11T10:02:20;32.60;;;20.50;;
83263;SDS011;73156;50.988;11.034;2024-01-11T10:04:47;32.20;;;20.15;;
83263;SDS011;73156;50.988;11.034;2024-01-11T10:07:13;30.40;;;19.20;;
83263;SDS011;73156;50.988;11.034;2024-01-11T10:09:40;35.67;;;20.08;;
83263;SDS011;73156;50.988;11.034;2024-01-11T10:12:05;30.37;;;18.73;;
83263;SDS011;73156;50.988;11.034;2024-01-11T10:14:31;30.67;;;19.63;;
83263;SDS011;73156;50.988;11.034;2024-01-11T10:16:57;33.50;;;18.95;;
83263;SDS011;73156;50.988;11.034;2024-01-11T10:19:22;33.13;;;19.65;;
83263;SDS011;73156;50.988;11.034;2024-01-11T10:21:47;33.37;;;19.97;;
83263;SDS011;73156;50.988;11.034;2024-01-11T10:24:17;28.48;;;18.42;;
83263;SDS011;73156;50.988;11.034;2024-01-11T10:26:43;33.95;;;20.08;;
83263;SDS011;73156;50.988;11.034;2024-01-11T10:29:08;32.63;;;19.00;;
83263;SDS011;73156;50.988;11.034;2024-01-11T10:31:35;30.58;;;18.65;;
83263;SDS011;73156;50.988;11.034;2024-01-11T10:34:01;33.53;;;19.15;;
83263;SDS011;73156;50.988;11.034;2024-01-11T10:36:26;34.05;;;19.50;;
83263;SDS011;73156;50.988;11.034;2024-01-11T10:38:55;28.60;;;18.50;;
83263;SDS011;73156;50.988;11.034;2024-01-11T10:41:22;33.13;;;19.60;;
83263;SDS011;73156;50.988;11.034;2024-01-11T10:43:48;29.08;;;17.45;;
83263;SDS011;73156;50.988;11.034;2024-01-11T10:46:13;29.92;;;19.48;;
83263;SDS011;73156;50.988;11.034;2024-01-11T10:48:42;31.45;;;19.77;;
83263;SDS011;73156;50.988;11.034;2024-01-11T10:51:09;27.83;;;18.02;;
83263;SDS011;73156;50.988;11.034;2024-01-11T10:56:12;29.80;;;18.77;;
83263;SDS011;73156;50.988;11.034;2024-01-11T10:58:39;29.30;;;19.00;;
83263;SDS011;73156;50.988;11.034;2024-01-11T11:01:06;30.65;;;18.83;;
83263;SDS011;73156;50.988;11.034;2024-01-11T11:03:33;29.92;;;17.60;;
83263;SDS011;73156;50.988;11.034;2024-01-11T11:06:00;31.67;;;17.10;;
83263;SDS011;73156;50.988;11.034;2024-01-11T11:08:25;33.78;;;20.23;;
83263;SDS011;73156;50.988;11.034;2024-01-11T11:10:58;29.35;;;17.55;;
83263;SDS011;73156;50.988;11.034;2024-01-11T11:13:24;31.52;;;18.88;;
83263;SDS011;73156;50.988;11.034;2024-01-11T11:15:51;28.48;;;18.60;;
83263;SDS011;73156;50.988;11.034;2024-01-11T11:18:17;31.05;;;19.45;;
83263;SDS011;73156;50.988;11.034;2024-01-11T11:20:44;25.92;;;17.08;;
83263;SDS011;73156;50.988;11.034;2024-01-11T11:23:10;32.30;;;19.73;;
83263;SDS011;73156;50.988;11.034;2024-01-11T11:25:39;28.35;;;18.63;;
83263;SDS011;73156;50.988;11.034;2024-01-11T11:28:05;31.02;;;20.23;;
83263;SDS011;73156;50.988;11.034;2024-01-11T11:30:31;31.98;;;19.58;;
83263;SDS011;73156;50.988;11.034;2024-01-11T11:33:11;31.05;;;19.02;;
83263;SDS011;73156;50.988;11.034;2024-01-11T11:35:41;30.90;;;19.00;;
83263;SDS011;73156;50.988;11.034;2024-01-11T11:38:07;30.48;;;19.63;;
83263;SDS011;73156;50.988;11.034;2024-01-11T11:40:33;31.52;;;18.35;;
83263;SDS011;73156;50.988;11.034;2024-01-11T11:43:04;29.20;;;19.20;;
83263;SDS011;73156;50.988;11.034;2024-01-11T11:45:30;28.85;;;18.92;;
83263;SDS011;73156;50.988;11.034;2024-01-11T11:47:56;29.20;;;20.00;;
83263;SDS011;73156;50.988;11.034;2024-01-11T11:50:22;30.70;;;19.60;;
83263;SDS011;73156;50.988;11.034;2024-01-11T11:52:53;37.80;;;21.77;;
83263;SDS011;73156;50.988;11.034;2024-01-11T11:55:20;38.47;;;23.40;;
83263;SDS011;73156;50.988;11.034;2024-01-11T11:57:47;44.83;;;27.33;;
83263;SDS011;73156;50.988;11.034;2024-01-11T12:00:13;54.97;;;31.63;;
83263;SDS011;73156;50.988;11.034;2024-01-11T12:02:41;53.92;;;33.95;;
83263;SDS011;73156;50.988;11.034;2024-01-11T12:05:06;61.57;;;38.27;;
83263;SDS011;73156;50.988;11.034;2024-01-11T12:07:31;70.13;;;41.60;;
83263;SDS011;73156;50.988;11.034;2024-01-11T12:09:57;70.90;;;40.50;;
83263;SDS011;73156;50.988;11.034;2024-01-11T12:12:22;79.93;;;47.00;;
83263;SDS011;73156;50.988;11.034;2024-01-11T12:14:48;80.05;;;48.25;;
83263;SDS011;73156;50.988;11.034;2024-01-11T12:17:14;85.75;;;51.20;;
83263;SDS011;73156;50.988;11.034;2024-01-11T12:19:40;87.90;;;53.72;;
83263;SDS011;73156;50.988;11.034;2024-01-11T12:22:05;90.30;;;56.27;;
83263;SDS011;73156;50.988;11.034;2024-01-11T12:24:30;91.88;;;58.20;;
83263;SDS011;73156;50.988;11.034;2024-01-11T12:26:58;102.43;;;62.08;;
83263;SDS011;73156;50.988;11.034;2024-01-11T12:29:24;101.55;;;62.22;;
83263;SDS011;73156;50.988;11.034;2024-01-11T12:31:50;105.03;;;60.05;;
83263;SDS011;73156;50.988;11.034;2024-01-11T12:34:16;101.97;;;63.08;;
83263;SDS011;73156;50.988;11.034;2024-01-11T12:36:41;104.88;;;64.93;;
83263;SDS011;73156;50.988;11.034;2024-01-11T12:39:07;110.32;;;65.10;;
83263;SDS011;73156;50.988;11.034;2024-01-11T12:41:34;100.65;;;62.88;;
83263;SDS011;73156;50.988;11.034;2024-01-11T12:43:59;106.07;;;66.10;;
83263;SDS011;73156;50.988;11.034;2024-01-11T12:46:25;110.15;;;69.45;;
83263;SDS011;73156;50.988;11.034;2024-01-11T12:48:50;106.60;;;67.28;;
83263;SDS011;73156;50.988;11.034;2024-01-11T12:51:16;102.43;;;62.33;;
83263;SDS011;73156;50.988;11.034;2024-01-11T12:53:46;108.93;;;67.55;;
83263;SDS011;73156;50.988;11.034;2024-01-11T12:56:14;110.20;;;68.28;;
83263;SDS011;73156;50.988;11.034;2024-01-11T12:58:40;107.80;;;66.85;;
83263;SDS011;73156;50.988;11.034;2024-01-11T13:01:06;107.72;;;68.63;;
83263;SDS011;73156;50.988;11.034;2024-01-11T13:03:34;112.53;;;69.20;;
83263;SDS011;73156;50.988;11.034;2024-01-11T13:06:01;113.00;;;69.15;;
83263;SDS011;73156;50.988;11.034;2024-01-11T13:08:27;114.38;;;72.22;;
83263;SDS011;73156;50.988;11.034;2024-01-11T13:10:53;117.47;;;71.72;;
83263;SDS011;73156;50.988;11.034;2024-01-11T13:13:19;108.95;;;70.60;;
83263;SDS011;73156;50.988;11.034;2024-01-11T13:15:45;114.97;;;72.97;;
83263;SDS011;73156;50.988;11.034;2024-01-11T13:18:11;113.63;;;70.20;;
83263;SDS011;73156;50.988;11.034;2024-01-11T13:20:36;115.82;;;72.90;;
83263;SDS011;73156;50.988;11.034;2024-01-11T13:23:17;117.67;;;73.73;;
83263;SDS011;73156;50.988;11.034;2024-01-11T13:25:45;110.90;;;67.82;;
83263;SDS011;73156;50.988;11.034;2024-01-11T13:28:11;108.47;;;67.38;;
83263;SDS011;73156;50.988;11.034;2024-01-11T13:30:38;109.55;;;68.07;;
83263;SDS011;73156;50.988;11.034;2024-01-11T13:33:07;110.90;;;69.07;;
83263;SDS011;73156;50.988;11.034;2024-01-11T13:35:37;110.70;;;70.78;;
83263;SDS011;73156;50.988;11.034;2024-01-11T13:38:03;104.65;;;66.53;;
83263;SDS011;73156;50.988;11.034;2024-01-11T13:40:29;108.93;;;66.97;;
83263;SDS011;73156;50.988;11.034;2024-01-11T13:42:55;110.75;;;66.82;;
83263;SDS011;73156;50.988;11.034;2024-01-11T13:45:23;100.88;;;65.57;;
83263;SDS011;73156;50.988;11.034;2024-01-11T13:47:52;102.70;;;65.10;;
83263;SDS011;73156;50.988;11.034;2024-01-11T13:50:20;105.93;;;64.80;;
83263;SDS011;73156;50.988;11.034;2024-01-11T13:52:46;106.70;;;64.88;;
83263;SDS011;73156;50.988;11.034;2024-01-11T13:55:12;100.20;;;64.47;;
83263;SDS011;73156;50.988;11.034;2024-01-11T13:57:38;103.75;;;66.00;;
83263;SDS011;73156;50.988;11.034;2024-01-11T14:00:04;97.85;;;63.95;;
83263;SDS011;73156;50.988;11.034;2024-01-11T14:02:30;102.47;;;65.78;;
83263;SDS011;73156;50.988;11.034;2024-01-11T14:04:55;100.30;;;63.88;;
83263;SDS011;73156;50.988;11.034;2024-01-11T14:07:21;104.27;;;63.10;;